createdAt,value
2019-03-17T00:01:27.045Z,98791.79
2019-03-17T00:06:32.591Z,98791.24
2019-03-17T00:11:38.147Z,98795.48
2019-03-17T00:16:43.667Z,98794.60
2019-03-17T00:21:50.460Z,98785.98
2019-03-17T00:26:55.926Z,98790.12
2019-03-17T00:32:01.587Z,98806.63
2019-03-17T00:37:07.264Z,98806.88
2019-03-17T00:42:12.735Z,98817.77
2019-03-17T00:47:18.254Z,98833.66
2019-03-17T00:52:23.954Z,98843.13
2019-03-17T00:57:30.340Z,98841.32
2019-03-17T01:02:35.770Z,98828.92
2019-03-17T01:07:41.317Z,98842.86
2019-03-17T01:12:46.783Z,98844.79
2019-03-17T01:17:52.227Z,98848.92
2019-03-17T01:22:57.782Z,98856.44
2019-03-17T01:28:01.139Z,98871.44
2019-03-17T01:33:06.701Z,98872.53
2019-03-17T01:38:12.141Z,98884.01
2019-03-17T01:43:17.562Z,98885.64
2019-03-17T01:48:22.984Z,98896.80
2019-03-17T01:53:28.437Z,98889.46
2019-03-17T01:58:33.888Z,98886.44
2019-03-17T02:03:39.409Z,98903.07
2019-03-17T02:08:44.852Z,98905.83
2019-03-17T02:13:50.360Z,98906.39
2019-03-17T02:18:56.007Z,98936.00
2019-03-17T02:24:01.528Z,98927.02
2019-03-17T02:29:07.157Z,98918.60
2019-03-17T02:34:12.653Z,98923.89
2019-03-17T02:39:18.333Z,98923.81
2019-03-17T02:44:23.676Z,98921.38
2019-03-17T02:49:29.031Z,98924.95
2019-03-17T02:54:34.550Z,98917.22
2019-03-17T02:59:39.957Z,98920.43
2019-03-17T03:04:45.364Z,98922.31
2019-03-17T03:09:50.843Z,98932.80
2019-03-17T03:14:56.306Z,98943.55
2019-03-17T03:20:01.801Z,98946.69
2019-03-17T03:25:07.612Z,98950.02
2019-03-17T03:30:13.338Z,98962.11
2019-03-17T03:35:18.881Z,98956.66
2019-03-17T03:40:24.281Z,98960.05
2019-03-17T03:45:29.673Z,98972.84
2019-03-17T03:50:35.281Z,98968.84
2019-03-17T03:55:42.363Z,98985.80
2019-03-17T04:00:48.058Z,98999.48
2019-03-17T04:05:53.716Z,98998.47
2019-03-17T04:10:59.115Z,99005.55
2019-03-17T04:16:04.481Z,99015.88
2019-03-17T04:21:09.985Z,99021.38
2019-03-17T04:26:15.555Z,99025.11
2019-03-17T04:31:21.106Z,99033.25
2019-03-17T04:36:39.516Z,99044.64
2019-03-17T04:41:33.685Z,99048.41
2019-03-17T04:46:39.167Z,99048.54
2019-03-17T04:51:44.512Z,99052.66
2019-03-17T04:56:49.946Z,99054.38
2019-03-17T05:01:55.425Z,99056.95
2019-03-17T05:07:00.935Z,99063.28
2019-03-17T05:12:06.596Z,99065.78
2019-03-17T05:17:12.089Z,99086.95
2019-03-17T05:22:17.605Z,99099.36
2019-03-17T05:27:23.293Z,99101.47
2019-03-17T05:32:28.719Z,99108.52
2019-03-17T05:37:34.146Z,99116.83
2019-03-17T05:42:40.909Z,99116.83
2019-03-17T05:47:46.574Z,99125.37
2019-03-17T05:52:52.000Z,99114.38
2019-03-17T05:57:57.504Z,99136.25
2019-03-17T06:03:03.021Z,99133.75
2019-03-17T06:08:08.486Z,99144.82
2019-03-17T06:13:13.869Z,99137.92
2019-03-17T06:18:19.420Z,99137.67
2019-03-17T06:23:24.913Z,99146.43
2019-03-17T06:28:30.314Z,99143.97
2019-03-17T06:33:35.761Z,99153.41
2019-03-17T06:38:41.209Z,99162.05
2019-03-17T06:43:46.593Z,99170.02
2019-03-17T06:48:52.133Z,99183.88
2019-03-17T06:53:57.665Z,99202.20
2019-03-17T06:59:03.096Z,99217.90
2019-03-17T07:04:08.520Z,99220.58
2019-03-17T07:09:14.029Z,99220.44
2019-03-17T07:14:19.509Z,99226.66
2019-03-17T07:19:24.957Z,99227.01
2019-03-17T07:24:30.424Z,99228.45
2019-03-17T07:29:35.920Z,99228.84
2019-03-17T07:34:41.444Z,99236.05
2019-03-17T07:39:46.919Z,99262.09
2019-03-17T07:44:52.290Z,99259.20
2019-03-17T07:49:57.792Z,99271.73
2019-03-17T07:55:03.216Z,99277.42
2019-03-17T08:00:09.666Z,99290.52
2019-03-17T08:05:15.296Z,99275.38
2019-03-17T08:10:20.824Z,99295.75
2019-03-17T08:15:26.339Z,99307.05
2019-03-17T08:20:31.804Z,99318.75
2019-03-17T08:25:37.217Z,99307.11
2019-03-17T08:30:52.384Z,99309.10
2019-03-17T08:35:50.187Z,99312.77
2019-03-17T08:40:55.829Z,99308.92
2019-03-17T08:46:01.247Z,99310.22
2019-03-17T08:51:06.972Z,99341.00
2019-03-17T08:56:12.389Z,99335.05
2019-03-17T09:01:17.834Z,99344.44
2019-03-17T09:06:23.754Z,99346.28
2019-03-17T09:11:29.187Z,99344.31
2019-03-17T09:16:34.641Z,99344.55
2019-03-17T09:21:39.990Z,99354.32
2019-03-17T09:26:45.363Z,99358.59
2019-03-17T09:31:50.759Z,99360.44
2019-03-17T09:36:56.253Z,99362.88
2019-03-17T09:42:04.634Z,99376.46
2019-03-17T09:47:10.040Z,99383.42
2019-03-17T09:52:15.456Z,99406.03
2019-03-17T09:57:20.970Z,99416.41
2019-03-17T10:02:26.326Z,99416.06
2019-03-17T10:07:31.793Z,99417.68
2019-03-17T10:12:37.306Z,99415.84
2019-03-17T10:17:42.875Z,99427.48
2019-03-17T10:22:48.351Z,99431.33
2019-03-17T10:27:54.000Z,99448.56
2019-03-17T10:32:59.581Z,99457.27
2019-03-17T10:38:05.065Z,99458.18
2019-03-17T10:43:10.590Z,99459.00
2019-03-17T10:48:19.938Z,99457.65
2019-03-17T10:53:24.033Z,99484.73
2019-03-17T10:58:29.564Z,99484.73
2019-03-17T11:03:35.026Z,99507.52
2019-03-17T11:08:40.448Z,99519.81
2019-03-17T11:13:45.921Z,99516.48
2019-03-17T11:18:51.471Z,99516.03
2019-03-17T11:23:56.925Z,99523.84
2019-03-17T11:29:02.534Z,99524.77
2019-03-17T11:34:08.006Z,99539.33
2019-03-17T11:39:13.471Z,99544.12
2019-03-17T11:44:19.268Z,99563.66
2019-03-17T11:49:24.922Z,99565.44
2019-03-17T11:54:30.595Z,99578.60
2019-03-17T11:59:36.327Z,99615.80
2019-03-17T12:04:41.985Z,99636.50
2019-03-17T12:09:50.321Z,99645.63
2019-03-17T12:14:54.676Z,99642.52
2019-03-17T12:20:00.376Z,99649.34
2019-03-17T12:25:06.157Z,99678.88
2019-03-17T12:30:20.144Z,99687.17
2019-03-17T12:35:25.619Z,99694.91
2019-03-17T12:40:31.233Z,99701.63
2019-03-17T12:45:36.744Z,99712.30
2019-03-17T12:50:42.343Z,99707.77
2019-03-17T12:55:47.724Z,99715.12
2019-03-17T13:00:53.311Z,99726.92
2019-03-17T13:05:58.802Z,99723.88
2019-03-17T13:11:04.274Z,99724.44
2019-03-17T13:16:09.709Z,99745.02
2019-03-17T13:21:15.157Z,99752.39
2019-03-17T13:26:22.683Z,99767.53
2019-03-17T13:31:28.121Z,99751.08
2019-03-17T13:36:33.670Z,99762.50
2019-03-17T13:41:39.204Z,99763.23
2019-03-17T13:46:44.687Z,99766.55
2019-03-17T13:51:50.308Z,99778.48
2019-03-17T13:56:55.789Z,99792.67
2019-03-17T14:02:01.394Z,99806.73
2019-03-17T14:07:06.841Z,99806.77
2019-03-17T14:12:12.289Z,99806.77
2019-03-17T14:17:17.760Z,99811.58
2019-03-17T14:22:24.003Z,99819.23
2019-03-17T14:27:29.561Z,99834.27
2019-03-17T14:32:35.219Z,99851.13
2019-03-17T14:37:40.744Z,99851.63
2019-03-17T14:42:46.642Z,99856.37
2019-03-17T14:47:52.310Z,99858.17
2019-03-17T14:53:00.614Z,99866.59
2019-03-17T14:58:05.104Z,99866.47
2019-03-17T15:03:10.570Z,99876.91
2019-03-17T15:08:16.191Z,99873.16
2019-03-17T15:13:21.856Z,99876.88
2019-03-17T15:18:27.543Z,99879.78
2019-03-17T15:23:32.997Z,99897.73
2019-03-17T15:28:41.510Z,99901.47
2019-03-17T15:33:47.217Z,99903.30
2019-03-17T15:38:52.821Z,99920.39
2019-03-17T15:43:58.411Z,99916.34
2019-03-17T15:49:03.853Z,99917.70
2019-03-17T15:54:09.536Z,99934.22
2019-03-17T15:59:15.106Z,99927.83
2019-03-17T16:04:20.631Z,99931.20
2019-03-17T16:09:28.507Z,99949.19
2019-03-17T16:14:33.270Z,99952.75
2019-03-17T16:19:38.816Z,99962.72
2019-03-17T16:24:44.514Z,99979.41
2019-03-17T16:29:49.961Z,99978.87
2019-03-17T16:34:55.397Z,99988.11
2019-03-17T16:40:00.821Z,99988.33
2019-03-17T16:45:07.399Z,100013.05
2019-03-17T16:50:14.678Z,100015.63
2019-03-17T16:55:20.347Z,100018.73
2019-03-17T17:00:26.546Z,100009.66
2019-03-17T17:05:34.905Z,100016.05
2019-03-17T17:10:39.333Z,100025.52
2019-03-17T17:15:44.954Z,100027.69
2019-03-17T17:20:50.526Z,100035.80
2019-03-17T17:25:55.959Z,100035.88
2019-03-17T17:31:01.452Z,100042.80
2019-03-17T17:36:06.959Z,100039.56
2019-03-17T17:41:12.507Z,100045.18
2019-03-17T17:46:17.937Z,100054.14
2019-03-17T17:51:23.475Z,100064.22
2019-03-17T17:56:29.040Z,100079.79
2019-03-17T18:01:34.532Z,100077.72
2019-03-17T18:06:40.087Z,100099.42
2019-03-17T18:11:45.532Z,100112.27
2019-03-17T18:16:51.052Z,100133.44
2019-03-17T18:21:56.601Z,100130.27
2019-03-17T18:27:02.319Z,100155.84
2019-03-17T18:32:07.961Z,100161.79
2019-03-17T18:37:16.002Z,100162.06
2019-03-17T18:42:32.611Z,100179.59
2019-03-17T18:47:28.782Z,100186.23
2019-03-17T18:52:34.499Z,100192.95
2019-03-17T18:57:42.073Z,100201.86
2019-03-17T19:02:47.346Z,100196.95
2019-03-17T19:07:52.886Z,100205.17
2019-03-17T19:12:58.393Z,100212.31
2019-03-17T19:18:03.961Z,100222.83
2019-03-17T19:23:09.697Z,100231.31
2019-03-17T19:28:15.321Z,100243.59
2019-03-17T19:33:20.879Z,100243.20
2019-03-17T19:38:26.490Z,100238.28
2019-03-17T19:43:32.145Z,100260.03
2019-03-17T19:48:37.702Z,100273.05
2019-03-17T19:53:43.271Z,100280.03
2019-03-17T19:58:48.741Z,100292.85
2019-03-17T20:03:54.164Z,100306.86
2019-03-17T20:08:59.859Z,100311.87
2019-03-17T20:14:07.181Z,100313.97
2019-03-17T20:19:12.798Z,100328.77
2019-03-17T20:24:18.393Z,100332.30
2019-03-17T20:29:25.021Z,100325.84
2019-03-17T20:34:30.767Z,100327.17
2019-03-17T20:39:36.360Z,100344.95
2019-03-17T20:44:42.100Z,100361.06
2019-03-17T20:49:47.819Z,100355.59
2019-03-17T20:54:53.514Z,100372.89
2019-03-17T20:59:59.180Z,100380.47
2019-03-17T21:05:05.042Z,100383.37
2019-03-17T21:10:11.460Z,100398.44
2019-03-17T21:15:16.939Z,100401.93
2019-03-17T21:20:22.521Z,100412.00
2019-03-17T21:25:28.082Z,100424.33
2019-03-17T21:30:33.601Z,100422.98
2019-03-17T21:35:39.059Z,100426.41
2019-03-17T21:41:01.691Z,100427.64
2019-03-17T21:45:51.880Z,100428.81
2019-03-17T21:50:57.378Z,100439.27
2019-03-17T21:56:06.200Z,100437.76
2019-03-17T22:01:12.041Z,100442.75
2019-03-17T22:06:17.522Z,100461.84
2019-03-17T22:11:23.310Z,100460.06
2019-03-17T22:16:29.781Z,100476.13
2019-03-17T22:21:35.299Z,100489.43
2019-03-17T22:26:40.881Z,100480.83
2019-03-17T22:31:46.664Z,100487.48
2019-03-17T22:36:52.361Z,100496.62
2019-03-17T22:41:58.024Z,100489.60
2019-03-17T22:47:03.562Z,100496.45
2019-03-17T22:52:09.206Z,100506.41
2019-03-17T22:57:15.221Z,100516.53
2019-03-17T23:02:23.779Z,100508.26
2019-03-17T23:07:29.480Z,100528.31
2019-03-17T23:12:35.272Z,100528.91
2019-03-17T23:17:41.219Z,100532.12
2019-03-17T23:22:46.827Z,100529.21
2019-03-17T23:27:52.441Z,100528.75
2019-03-17T23:32:57.980Z,100537.87
2019-03-17T23:38:03.507Z,100541.13
2019-03-17T23:43:09.082Z,100539.73
2019-03-17T23:48:14.771Z,100543.08
2019-03-17T23:53:20.221Z,100558.84
2019-03-17T23:58:25.802Z,100555.66
